Página principal
METAR-TAF:

METAR-TAF

Aeroportos :

Kasane, Botswana

latitude: 17-49S, longitude: 025-09E, altura: 968 m

Observação actual do tempo

O boletim foi feito há 14 horas e 43 minutos, às 14:00 UTC
Vento 6 kt de noroeste, variando entre oeste e norte
Temperatura 36°C
Humidade 17%
Pressão 1012 hPa
Visibilidade 10 km ou mais
sem nuvens abaixo de 1500 metros e sem cumulonimbus

METAR: FBKE 251400Z 31006KT 270V350 CAVOK 36/07 Q1012

Hora: 06:43 (04:43 UTC)

Previsão

O boletim foi feito há 16 horas e 43 minutos, às 12:00 UTC
Previsão válida de 25 às 15 UTC a 25 às 24 UTC
Vento 5 kt de oes-sudoeste
Visibilidade 10 km ou mais
sem nuvens abaixo de 1500 metros e sem cumulonimbus

TAF: FBKE 251200Z 2515/2524 25005KT CAVOK

Observações e previsões do tempo de mais de 4000 aeroportos (mensagens METAR e TAF).

As estações disponíveis são os pontos amarelos e vermelhos sobre o mapa.

Mova o rato sobre o mapa para ver o nome da estação.

Depois clique no ponto para visualizar as observações e previsões meteorológicas.

Para alterar o mapa : clique nos botões verdes com uma cruz preta para aumentar o zoom; no botão verde com uma pitada de zoom; ou nas setas verdes para mapas adjacentes.


METAR-TAF: